Time;durP1;ratioP1;P1;durP2;ratioP2;P2;SDS_P1;SDS_P2;PMS_P1;PMS_P2;Temp;Humidity;BMP_temperature;BMP_pressure;BME280_temperature;BME280_humidity;BME280_pressure;Samples;Min_cycle;Max_cycle;Signal;HPM_P1;HPM_P2
2022/03/30 00:01:25;;;;;;;26.58;13.70;;;;;;;10.44;57.05;100711.66;6277987;22;20031;-60
2022/03/30 00:03:50;;;;;;;27.90;13.27;;;;;;;10.41;57.03;100706.34;6278055;22;20000;-61
2022/03/30 00:06:16;;;;;;;35.47;13.75;;;;;;;10.46;56.90;100710.78;6278068;22;20075;-60
2022/03/30 00:08:42;;;;;;;29.80;14.23;;;;;;;10.49;56.55;100712.56;6278174;22;20000;-60
2022/03/30 00:11:09;;;;;;;32.75;13.60;;;;;;;10.44;56.81;100709.00;6278422;22;20050;-60
2022/03/30 00:13:35;;;;;;;27.08;14.35;;;;;;;10.42;56.78;100713.41;6278161;22;20003;-61
2022/03/30 00:16:02;;;;;;;28.08;13.77;;;;;;;10.36;57.11;100711.56;6278103;22;20049;-60
2022/03/30 00:18:29;;;;;;;31.17;14.32;;;;;;;10.30;57.48;100716.81;6278035;22;20003;-60
2022/03/30 00:20:55;;;;;;;32.58;14.82;;;;;;;10.20;57.73;100709.63;6278024;22;20003;-60
2022/03/30 00:23:20;;;;;;;27.70;13.88;;;;;;;10.13;57.86;100719.22;6278148;22;20010;-60
2022/03/30 00:25:46;;;;;;;32.60;13.88;;;;;;;10.09;57.87;100706.88;6278060;22;20054;-60
2022/03/30 00:28:12;;;;;;;28.60;14.30;;;;;;;10.01;58.02;100700.63;6278076;22;20007;-60
2022/03/30 00:30:37;;;;;;;30.23;13.77;;;;;;;9.96;58.25;100697.06;6277787;22;20000;-60
2022/03/30 00:33:03;;;;;;;31.38;13.88;;;;;;;9.90;58.35;100703.16;6278042;22;20028;-60
2022/03/30 00:35:28;;;;;;;28.10;12.95;;;;;;;9.93;58.49;100695.25;6278024;22;20000;-59
2022/03/30 00:37:54;;;;;;;25.55;13.73;;;;;;;9.90;58.65;100691.72;6277782;22;20053;-59
2022/03/30 00:40:20;;;;;;;27.25;13.95;;;;;;;9.94;58.61;100691.78;6277183;22;20016;-60
2022/03/30 00:42:45;;;;;;;31.33;13.60;;;;;;;9.90;58.57;100697.00;6276144;22;20016;-61
2022/03/30 00:45:14;;;;;;;34.47;14.55;;;;;;;9.85;58.41;100691.69;6277941;22;20421;-60
2022/03/30 00:47:40;;;;;;;28.20;12.98;;;;;;;9.82;58.86;100693.38;6278158;22;20061;-60
2022/03/30 00:50:08;;;;;;;27.83;14.40;;;;;;;9.77;58.63;100699.50;6277833;22;20004;-60
2022/03/30 00:52:35;;;;;;;33.80;14.30;;;;;;;9.66;58.95;100706.38;6277670;22;20000;-60
2022/03/30 00:55:01;;;;;;;28.55;13.18;;;;;;;9.60;59.07;100701.06;6278060;22;20014;-60
2022/03/30 00:57:29;;;;;;;35.90;14.90;;;;;;;9.53;59.25;100702.72;6277404;22;20333;-60
2022/03/30 00:59:56;;;;;;;31.60;14.35;;;;;;;9.48;59.20;100698.25;6278119;22;20090;-60
2022/03/30 01:02:23;;;;;;;28.23;13.40;;;;;;;9.49;59.49;100692.97;6277245;22;20007;-60
2022/03/30 01:04:50;;;;;;;28.17;13.68;;;;;;;9.43;59.11;100690.28;6277377;22;20010;-60
2022/03/30 01:07:18;;;;;;;28.02;13.63;;;;;;;9.38;59.13;100693.72;6277658;22;20003;-60
2022/03/30 01:09:44;;;;;;;28.13;14.35;;;;;;;9.34;59.90;100684.91;6277654;22;20004;-60
2022/03/30 01:12:13;;;;;;;26.30;13.38;;;;;;;9.35;60.11;100684.03;6277654;22;20000;-60
2022/03/30 01:14:39;;;;;;;27.65;13.75;;;;;;;9.25;59.83;100682.16;6277646;22;20328;-60
2022/03/30 01:17:05;;;;;;;30.67;14.05;;;;;;;9.22;59.68;100675.06;6277568;22;20023;-59
2022/03/30 01:19:34;;;;;;;29.70;14.15;;;;;;;9.15;60.04;100670.56;6277803;22;20039;-60
2022/03/30 01:22:00;;;;;;;23.45;13.32;;;;;;;9.05;59.65;100673.06;6250241;22;20008;-60
2022/03/30 01:24:26;;;;;;;27.10;13.35;;;;;;;8.96;60.19;100671.19;6277506;22;20007;-59
2022/03/30 01:26:52;;;;;;;30.27;14.35;;;;;;;8.95;60.99;100670.31;6277324;22;20425;-61
2022/03/30 01:34:47;;;;;;;30.85;13.73;;;;;;;8.80;60.44;100663.91;6277523;22;20068;-60
2022/03/30 01:37:14;;;;;;;28.67;13.30;;;;;;;8.82;60.77;100664.81;6277389;22;20053;-60
2022/03/30 01:39:40;;;;;;;27.52;13.35;;;;;;;8.76;60.89;100657.72;6276651;22;20360;-60
2022/03/30 01:42:07;;;;;;;33.15;13.77;;;;;;;8.72;60.69;100662.03;6277550;22;20011;-60
2022/03/30 01:44:34;;;;;;;29.48;15.07;;;;;;;8.68;61.17;100668.13;6277159;22;20417;-60
2022/03/30 01:46:59;;;;;;;30.00;13.75;;;;;;;8.65;60.89;100665.47;6277182;22;20000;-60
2022/03/30 01:49:25;;;;;;;31.13;13.40;;;;;;;8.70;61.26;100670.81;6277523;22;20004;-60
2022/03/30 01:51:58;;;;;;;30.42;14.00;;;;;;;8.64;61.22;100663.66;6277378;22;20057;-60
2022/03/30 01:54:25;;;;;;;25.73;13.02;;;;;;;8.67;61.51;100665.47;6277122;22;20011;-60
2022/03/30 01:56:52;;;;;;;30.27;14.15;;;;;;;8.66;61.23;100661.97;6277111;22;20074;-60
2022/03/30 01:59:19;;;;;;;27.17;13.95;;;;;;;8.58;61.43;100650.41;6277374;22;20005;-60
2022/03/30 02:01:44;;;;;;;27.95;12.88;;;;;;;8.58;61.84;100657.44;6277008;22;20393;-59
2022/03/30 02:04:11;;;;;;;25.05;13.85;;;;;;;8.50;62.22;100647.66;6277067;22;20027;-60
2022/03/30 02:06:37;;;;;;;34.47;14.10;;;;;;;8.47;62.05;100641.44;6276884;22;20046;-60
2022/03/30 02:09:07;;;;;;;27.85;13.23;;;;;;;8.53;62.18;100638.94;6276841;22;20310;-60
2022/03/30 02:11:33;;;;;;;25.17;13.30;;;;;;;8.53;61.52;100644.19;6276990;22;20010;-60
2022/03/30 02:14:00;;;;;;;28.10;13.60;;;;;;;8.46;61.85;100635.31;6276786;22;20026;-60
2022/03/30 02:16:26;;;;;;;27.70;13.30;;;;;;;8.44;62.06;100638.78;6276851;22;20003;-60
2022/03/30 02:18:52;;;;;;;29.63;13.65;;;;;;;8.38;61.43;100638.66;6277286;22;20008;-60
2022/03/30 02:21:20;;;;;;;33.10;14.82;;;;;;;8.34;62.43;100639.44;6276781;22;20014;-60
2022/03/30 02:23:46;;;;;;;25.48;13.88;;;;;;;8.29;63.04;100632.34;6276815;22;20008;-60
2022/03/30 02:26:13;;;;;;;27.75;13.45;;;;;;;8.27;62.93;100628.84;6276759;22;20326;-60
2022/03/30 02:28:40;;;;;;;29.50;14.75;;;;;;;8.22;63.02;100621.69;6277099;22;20004;-60
2022/03/30 02:31:05;;;;;;;26.77;13.85;;;;;;;8.21;62.84;100617.31;6276752;22;20380;-60
2022/03/30 02:33:31;;;;;;;31.88;14.95;;;;;;;8.23;61.85;100620.84;6276800;22;19999;-60
2022/03/30 02:35:56;;;;;;;28.33;13.98;;;;;;;8.21;62.61;100609.41;6276751;22;20027;-60
2022/03/30 02:38:22;;;;;;;28.88;14.38;;;;;;;8.25;62.68;100598.06;6276738;22;20027;-60
2022/03/30 02:40:47;;;;;;;28.05;13.55;;;;;;;8.27;62.21;100594.63;6276165;22;20530;-59
2022/03/30 02:43:16;;;;;;;29.58;14.10;;;;;;;8.25;61.57;100600.69;6277098;22;20008;-60
2022/03/30 02:45:42;;;;;;;32.53;13.98;;;;;;;8.18;62.52;100594.47;6276671;22;20003;-60
2022/03/30 02:48:22;;;;;;;33.38;14.15;;;;;;;8.19;62.52;100596.22;6276761;22;20385;-60
2022/03/30 02:50:54;;;;;;;28.17;14.07;;;;;;;8.19;61.93;100593.59;6276606;22;20056;-60
2022/03/30 02:53:20;;;;;;;32.67;14.48;;;;;;;8.15;62.13;100591.78;6276584;22;20078;-60
2022/03/30 02:55:47;;;;;;;25.42;13.88;;;;;;;8.11;62.35;100591.69;6276875;22;20007;-59
2022/03/30 02:58:13;;;;;;;30.27;14.25;;;;;;;8.09;62.60;100590.78;6276969;22;20062;-60
2022/03/30 03:00:39;;;;;;;34.83;14.13;;;;;;;8.07;62.89;100585.50;6276855;22;20008;-60
2022/03/30 03:03:07;;;;;;;33.70;14.05;;;;;;;8.12;62.11;100583.81;6276564;22;20370;-60
2022/03/30 03:05:34;;;;;;;30.67;13.45;;;;;;;8.10;62.89;100582.94;6276464;22;20026;-60
2022/03/30 03:08:01;;;;;;;33.25;14.52;;;;;;;8.07;62.78;100579.34;6276478;22;20011;-59
2022/03/30 03:10:28;;;;;;;29.95;13.73;;;;;;;8.08;62.32;100586.38;6276429;22;19999;-59
2022/03/30 03:12:54;;;;;;;29.67;14.43;;;;;;;8.04;62.56;100583.69;6276514;22;20042;-60
2022/03/30 03:15:20;;;;;;;29.35;13.77;;;;;;;7.97;62.53;100587.09;6276452;22;20000;-59
2022/03/30 03:17:45;;;;;;;29.55;13.55;;;;;;;7.98;62.91;100588.84;6276567;22;19999;-60
2022/03/30 03:20:11;;;;;;;35.78;14.85;;;;;;;7.91;62.93;100583.47;6276356;22;20053;-61
2022/03/30 03:22:38;;;;;;;28.98;13.75;;;;;;;7.81;63.04;100589.44;6276311;22;20007;-60
2022/03/30 03:25:04;;;;;;;29.13;13.90;;;;;;;7.76;63.55;100584.09;6276515;22;20000;-60
2022/03/30 03:27:30;;;;;;;31.88;13.90;;;;;;;7.75;64.09;100584.94;6277698;22;20014;-60
2022/03/30 03:29:55;;;;;;;30.17;13.45;;;;;;;7.77;63.86;100576.22;6278808;22;20074;-60
2022/03/30 03:32:21;;;;;;;31.23;14.35;;;;;;;7.75;63.79;100574.41;6278614;22;20006;-60
2022/03/30 03:34:47;;;;;;;31.85;14.10;;;;;;;7.72;63.40;100575.25;6278855;22;20023;-60
2022/03/30 03:37:12;;;;;;;29.80;14.38;;;;;;;7.71;63.45;100572.63;6278230;22;20452;-60
2022/03/30 03:39:50;;;;;;;33.08;14.20;;;;;;;7.74;63.47;100565.63;6278174;22;20015;-60
2022/03/30 03:42:18;;;;;;;36.00;13.90;;;;;;;7.70;63.23;100563.81;6278414;22;20065;-60
2022/03/30 03:44:44;;;;;;;29.25;13.57;;;;;;;7.73;63.81;100557.72;6278349;22;20023;-60
2022/03/30 03:47:10;;;;;;;29.35;13.90;;;;;;;7.71;63.22;100560.34;6278663;22;20004;-59
2022/03/30 03:49:36;;;;;;;32.75;13.95;;;;;;;7.65;63.56;100559.34;6278433;22;20014;-59
2022/03/30 03:52:04;;;;;;;28.92;13.50;;;;;;;7.66;63.50;100558.47;6278356;22;20030;-59
2022/03/30 03:54:29;;;;;;;28.48;14.00;;;;;;;7.63;63.73;100563.69;6278110;22;20049;-60
2022/03/30 03:56:56;;;;;;;29.67;14.38;;;;;;;7.56;64.31;100567.06;6278192;22;20003;-59
2022/03/30 03:59:21;;;;;;;32.45;14.00;;;;;;;7.50;64.16;100560.84;6278276;22;20016;-60
2022/03/30 04:01:47;;;;;;;31.50;13.18;;;;;;;7.47;64.23;100558.13;6278166;22;20112;-60
2022/03/30 04:04:12;;;;;;;29.70;13.60;;;;;;;7.46;64.05;100548.50;6278130;22;20491;-61
2022/03/30 04:06:38;;;;;;;30.23;13.40;;;;;;;7.43;64.25;100547.53;6278008;22;20053;-61
2022/03/30 04:09:03;;;;;;;31.35;13.85;;;;;;;7.35;64.14;100550.03;6278157;22;20034;-61
2022/03/30 04:11:29;;;;;;;31.55;13.10;;;;;;;7.32;63.76;100552.59;6278154;22;20476;-61
2022/03/30 04:13:55;;;;;;;30.90;13.27;;;;;;;7.28;63.94;100549.03;6251542;22;20008;-61
2022/03/30 04:16:20;;;;;;;30.92;13.98;;;;;;;7.26;64.57;100544.59;6278120;22;20444;-61
2022/03/30 04:18:46;;;;;;;30.42;14.10;;;;;;;7.29;63.99;100547.28;6278429;22;20004;-61
2022/03/30 04:21:12;;;;;;;28.15;13.40;;;;;;;7.25;63.83;100541.09;6278060;22;20420;-61
2022/03/30 04:23:37;;;;;;;28.23;13.63;;;;;;;7.21;64.02;100547.13;6278401;22;20004;-61
2022/03/30 04:26:03;;;;;;;30.13;13.60;;;;;;;7.21;64.16;100541.88;6278281;22;20008;-60
2022/03/30 04:28:42;;;;;;;32.95;13.93;;;;;;;7.17;64.13;100545.31;6277962;22;20053;-59
2022/03/30 04:31:08;;;;;;;31.48;12.95;;;;;;;7.06;64.48;100528.44;6278198;22;20092;-61
2022/03/30 04:33:36;;;;;;;35.38;14.20;;;;;;;7.05;64.82;100545.06;6250827;22;20011;-60
2022/03/30 04:36:02;;;;;;;28.88;13.55;;;;;;;7.07;65.10;100538.09;6277658;22;20027;-60
2022/03/30 04:38:27;;;;;;;31.23;13.68;;;;;;;7.05;65.02;100542.44;6277835;22;20061;-60
2022/03/30 04:40:53;;;;;;;26.67;13.18;;;;;;;7.00;65.08;100541.47;6277221;22;20020;-61
2022/03/30 04:43:18;;;;;;;32.00;14.30;;;;;;;6.94;65.60;100549.22;6278022;22;20007;-60
2022/03/30 04:45:45;;;;;;;29.77;13.50;;;;;;;6.98;65.05;100554.56;6277727;22;20081;-60
2022/03/30 04:48:10;;;;;;;31.70;13.30;;;;;;;6.99;64.55;100552.81;6277840;22;20069;-60
2022/03/30 04:50:35;;;;;;;32.22;13.40;;;;;;;7.00;64.45;100551.97;6277977;22;20416;-60
2022/03/30 04:53:01;;;;;;;27.77;13.80;;;;;;;7.03;64.53;100552.03;6277749;22;20003;-60
2022/03/30 04:55:27;;;;;;;28.50;14.20;;;;;;;6.96;64.71;100548.38;6277689;22;20035;-60
2022/03/30 04:57:53;;;;;;;31.70;13.68;;;;;;;6.89;64.59;100550.84;6278067;22;20015;-61
2022/03/30 05:00:18;;;;;;;34.55;14.13;;;;;;;6.86;64.68;100562.19;6277558;22;20074;-60
2022/03/30 05:02:44;;;;;;;30.70;13.82;;;;;;;6.80;64.94;100556.78;6277630;22;20027;-60
2022/03/30 05:05:10;;;;;;;36.08;14.75;;;;;;;6.72;65.38;100558.34;6277771;22;20011;-61
2022/03/30 05:07:37;;;;;;;31.48;15.90;;;;;;;6.62;65.63;100552.03;6277455;22;20015;-61
2022/03/30 05:10:05;;;;;;;34.38;16.48;;;;;;;6.55;66.07;100546.59;6250514;22;20008;-61
2022/03/30 05:12:31;;;;;;;37.63;16.17;;;;;;;6.58;65.50;100549.31;6277724;22;20057;-60
2022/03/30 05:14:57;;;;;;;44.95;16.80;;;;;;;6.52;66.13;100550.06;6277472;22;20012;-61
2022/03/30 05:17:22;;;;;;;35.25;17.00;;;;;;;6.48;66.09;100546.47;6277840;22;20000;-61
2022/03/30 05:19:48;;;;;;;40.90;15.98;;;;;;;6.40;66.30;100542.78;6277401;22;20439;-61
2022/03/30 05:22:15;;;;;;;33.08;15.38;;;;;;;6.35;66.19;100540.94;6277137;22;20053;-61
2022/03/30 05:24:46;;;;;;;30.23;14.77;;;;;;;6.31;67.16;100542.59;6277515;22;19999;-61
2022/03/30 05:27:11;;;;;;;37.25;17.20;;;;;;;6.35;66.48;100540.94;6277510;22;20003;-60
2022/03/30 05:29:37;;;;;;;36.30;15.38;;;;;;;6.32;66.42;100539.09;6277318;22;20004;-60
2022/03/30 05:32:03;;;;;;;31.70;14.57;;;;;;;6.37;66.57;100523.47;6277394;22;19999;-60
2022/03/30 05:34:29;;;;;;;34.20;14.88;;;;;;;6.38;66.53;100530.47;6277215;22;20006;-60
2022/03/30 05:36:57;;;;;;;35.28;15.73;;;;;;;6.31;66.76;100529.47;6276975;22;20027;-60
2022/03/30 05:39:22;;;;;;;31.40;14.68;;;;;;;6.23;66.67;100531.91;6249884;22;20015;-60
2022/03/30 05:41:48;;;;;;;36.08;14.95;;;;;;;6.24;67.06;100538.03;6277109;22;20008;-60
2022/03/30 05:44:13;;;;;;;30.63;14.60;;;;;;;6.21;66.92;100537.97;6277276;22;20027;-60
2022/03/30 05:46:39;;;;;;;31.45;14.52;;;;;;;6.24;67.06;100543.28;6277175;22;20007;-59
2022/03/30 05:49:05;;;;;;;28.00;14.85;;;;;;;6.16;67.51;100530.00;6277042;22;20004;-59
2022/03/30 05:51:31;;;;;;;31.88;15.20;;;;;;;6.18;67.68;100527.41;6276875;22;20014;-60
2022/03/30 05:53:57;;;;;;;27.58;14.88;;;;;;;6.22;67.47;100532.78;6277501;22;20818;-60
2022/03/30 05:57:00;;;;;;;31.02;14.95;;;;;;;6.32;67.32;100530.34;6277106;22;20069;-59
2022/03/30 05:59:08;;;;;;;27.92;13.70;;;;;;;6.39;66.99;100534.91;6275860;22;20074;-60
2022/03/30 06:01:34;;;;;;;31.95;14.48;;;;;;;6.44;66.92;100536.75;6277327;22;20008;-60
2022/03/30 06:04:00;;;;;;;36.28;14.55;;;;;;;6.51;66.55;100537.81;6277285;22;20082;-60
2022/03/30 06:06:25;;;;;;;33.95;13.98;;;;;;;6.55;66.31;100541.34;6277075;22;20042;-60
2022/03/30 06:08:56;;;;;;;30.25;14.00;;;;;;;6.66;66.44;100547.75;6277082;22;20407;-60
2022/03/30 06:11:21;;;;;;;30.98;14.82;;;;;;;6.70;66.27;100545.22;6276884;22;20042;-60
2022/03/30 06:13:50;;;;;;;33.22;14.68;;;;;;;6.72;66.70;100548.78;6276896;22;20003;-60
2022/03/30 06:16:15;;;;;;;33.45;13.90;;;;;;;6.87;65.84;100550.81;6277140;22;20004;-60
2022/03/30 06:18:44;;;;;;;34.85;13.98;;;;;;;6.97;65.99;100551.88;6249386;22;20078;-61
2022/03/30 06:21:10;;;;;;;31.40;13.50;;;;;;;7.01;65.65;100549.34;6276445;22;20068;-59
2022/03/30 06:23:36;;;;;;;30.38;13.18;;;;;;;7.12;65.69;100553.97;6276857;22;20003;-60
2022/03/30 06:26:03;;;;;;;27.02;13.57;;;;;;;7.18;65.00;100554.94;6277065;22;20321;-60
2022/03/30 06:28:31;;;;;;;30.65;14.25;;;;;;;7.33;65.40;100558.75;6249613;22;20337;-57
2022/03/30 06:30:57;;;;;;;30.40;14.32;;;;;;;7.39;64.98;100561.47;6276648;22;20011;-60
2022/03/30 06:33:22;;;;;;;30.75;14.07;;;;;;;7.44;64.47;100563.34;6276840;22;19999;-61
2022/03/30 06:35:48;;;;;;;34.00;14.50;;;;;;;7.56;64.51;100552.16;6276556;22;20484;-60
2022/03/30 06:38:13;;;;;;;28.80;14.18;;;;;;;7.77;64.26;100546.41;6276635;22;20011;-60
2022/03/30 06:40:39;;;;;;;28.00;14.15;;;;;;;8.00;64.26;100546.78;6276077;22;20011;-60
2022/03/30 06:43:04;;;;;;;33.03;14.52;;;;;;;8.21;62.30;100538.34;6276728;22;20007;-60
2022/03/30 06:45:30;;;;;;;27.77;14.48;;;;;;;8.42;61.32;100537.81;6276656;22;20000;-60
2022/03/30 06:47:56;;;;;;;33.72;14.98;;;;;;;8.41;61.78;100533.41;6276595;22;20003;-60
2022/03/30 06:50:21;;;;;;;30.55;14.32;;;;;;;8.57;61.52;100543.31;6276526;22;20049;-60
2022/03/30 06:52:47;;;;;;;30.63;14.40;;;;;;;8.69;62.39;100542.56;6276432;22;20038;-60
2022/03/30 06:55:14;;;;;;;30.73;14.27;;;;;;;8.73;60.72;100544.38;6276729;22;20004;-60
2022/03/30 06:57:40;;;;;;;32.85;14.38;;;;;;;8.91;60.24;100544.63;6276863;22;20356;-60
2022/03/30 07:00:06;;;;;;;30.38;13.35;;;;;;;9.11;59.68;100536.97;6276544;22;20004;-60
2022/03/30 07:02:32;;;;;;;27.38;13.50;;;;;;;9.33;59.65;100534.56;6276150;22;20065;-60
2022/03/30 07:05:07;;;;;;;32.83;15.75;;;;;;;9.57;59.14;100537.47;6276432;22;20008;-61
2022/03/30 07:10:23;;;;;;;33.72;13.80;;;;;;;9.77;58.01;100533.25;6276719;22;20018;-60
2022/03/30 07:12:50;;;;;;;29.90;13.30;;;;;;;9.89;58.04;100535.13;6276503;22;19999;-61
2022/03/30 07:15:20;;;;;;;32.30;13.30;;;;;;;10.01;57.24;100529.03;6276864;22;20372;-60
2022/03/30 07:17:54;;;;;;;28.42;13.18;;;;;;;10.15;56.78;100527.41;6276433;22;20010;-61
2022/03/30 07:20:22;;;;;;;28.48;13.48;;;;;;;10.32;56.31;100535.50;6276713;22;20346;-60
2022/03/30 07:22:48;;;;;;;26.45;13.43;;;;;;;10.45;55.73;100532.06;6276512;22;20329;-60
2022/03/30 07:25:15;;;;;;;26.27;14.18;;;;;;;10.60;55.45;100540.94;6276460;22;20004;-60
2022/03/30 07:27:44;;;;;;;27.35;13.50;;;;;;;10.73;55.31;100533.06;6276346;22;20429;-60
2022/03/30 07:30:11;;;;;;;27.10;14.02;;;;;;;10.96;54.83;100538.47;6276825;22;20384;-60
2022/03/30 07:32:39;;;;;;;32.05;14.52;;;;;;;11.21;54.23;100534.13;6276436;22;20008;-60
2022/03/30 07:35:11;;;;;;;30.90;14.98;;;;;;;11.46;53.65;100528.91;6276415;22;20000;-61
2022/03/30 07:37:38;;;;;;;28.83;13.45;;;;;;;11.72;52.87;100531.59;6276406;22;20011;-60
2022/03/30 07:40:06;;;;;;;26.17;14.02;;;;;;;12.01;51.98;100529.00;6275891;22;20066;-60
2022/03/30 07:42:31;;;;;;;28.58;13.23;;;;;;;12.12;50.63;100518.38;6276691;22;19999;-60
2022/03/30 07:44:58;;;;;;;25.67;14.25;;;;;;;12.18;51.10;100524.59;6276141;22;19999;-61
2022/03/30 07:47:25;;;;;;;27.95;14.40;;;;;;;12.24;51.01;100529.84;6276384;22;20004;-60
2022/03/30 07:49:51;;;;;;;35.03;14.52;;;;;;;12.49;50.47;100521.88;6276394;22;20480;-61
2022/03/30 07:52:17;;;;;;;31.00;14.80;;;;;;;12.72;49.54;100527.13;6276278;22;20007;-60
2022/03/30 07:54:43;;;;;;;30.80;14.25;;;;;;;12.94;48.81;100520.84;6276207;22;20035;-60
2022/03/30 07:57:09;;;;;;;28.42;14.38;;;;;;;13.11;48.75;100526.09;6276311;22;20007;-60
2022/03/30 07:59:34;;;;;;;24.52;12.70;;;;;;;13.43;47.96;100525.94;6276267;22;20004;-60
2022/03/30 08:02:00;;;;;;;28.35;13.50;;;;;;;13.65;46.90;100518.72;6276503;22;20012;-60
2022/03/30 08:04:26;;;;;;;27.27;13.20;;;;;;;13.62;45.40;100525.81;6276369;22;20004;-60
2022/03/30 08:06:51;;;;;;;26.98;13.90;;;;;;;13.51;45.41;100532.06;6276167;22;20416;-60
2022/03/30 08:09:17;;;;;;;27.27;12.88;;;;;;;13.50;45.97;100530.31;6276529;22;20085;-61
2022/03/30 08:11:42;;;;;;;33.63;13.68;;;;;;;13.61;46.17;100524.03;6276217;22;20368;-60
2022/03/30 08:14:09;;;;;;;25.05;12.52;;;;;;;13.71;45.88;100526.66;6278336;22;20000;-60
2022/03/30 08:16:34;;;;;;;26.38;12.80;;;;;;;13.76;45.69;100537.22;6278435;22;20030;-60
2022/03/30 08:19:00;;;;;;;26.88;12.88;;;;;;;13.75;45.31;100527.50;6278129;22;20366;-60
2022/03/30 08:24:09;;;;;;;24.50;11.40;;;;;;;14.04;44.63;100538.75;6278174;22;20015;-60
2022/03/30 08:26:35;;;;;;;24.00;11.73;;;;;;;14.22;44.74;100535.09;6278365;22;20004;-60
2022/03/30 08:29:00;;;;;;;22.33;11.10;;;;;;;14.24;44.40;100535.06;6278184;22;20421;-61
2022/03/30 08:31:26;;;;;;;21.27;11.57;;;;;;;14.21;43.71;100538.59;6278079;22;20318;-61
2022/03/30 08:33:52;;;;;;;22.75;11.80;;;;;;;14.08;44.36;100542.28;6278124;22;20004;-60
2022/03/30 08:36:17;;;;;;;20.85;11.43;;;;;;;14.18;43.86;100529.81;6277863;22;20007;-65
2022/03/30 08:38:43;;;;;;;21.85;11.80;;;;;;;14.23;44.10;100534.19;6277986;22;20004;-60
2022/03/30 08:41:09;;;;;;;25.73;11.45;;;;;;;14.25;43.62;100528.84;6277341;22;20026;-61
2022/03/30 08:43:35;;;;;;;24.30;11.02;;;;;;;14.24;44.14;100527.97;6277805;22;20010;-63
2022/03/30 08:46:02;;;;;;;23.40;11.02;;;;;;;14.47;44.00;100530.41;6277651;22;19999;-60
2022/03/30 08:48:29;;;;;;;27.88;11.48;;;;;;;14.56;43.36;100520.59;6277743;22;20007;-60
2022/03/30 08:50:56;;;;;;;25.30;11.60;;;;;;;14.54;43.89;100517.94;6277835;22;20433;-61
2022/03/30 08:53:24;;;;;;;24.20;11.10;;;;;;;14.75;43.43;100528.34;6277835;22;20004;-60
2022/03/30 08:55:55;;;;;;;25.45;11.00;;;;;;;14.72;43.20;100517.75;6277751;22;20008;-60
2022/03/30 08:58:21;;;;;;;23.52;11.48;;;;;;;14.75;43.83;100520.38;6278101;22;20049;-61
2022/03/30 09:00:46;;;;;;;26.90;11.55;;;;;;;14.96;43.37;100507.72;6277512;22;20011;-60
2022/03/30 09:03:15;;;;;;;23.50;11.43;;;;;;;15.01;42.89;100516.50;6277685;22;20004;-60
2022/03/30 09:05:41;;;;;;;25.25;11.45;;;;;;;15.08;43.03;100510.22;6277966;22;20057;-59
2022/03/30 09:08:24;;;;;;;20.40;10.35;;;;;;;15.49;42.56;100506.09;6277898;22;20008;-60
2022/03/30 09:10:52;;;;;;;20.65;11.18;;;;;;;15.81;41.15;100508.31;6277897;22;20088;-60
2022/03/30 09:13:17;;;;;;;21.80;11.32;;;;;;;15.90;40.76;100504.59;6277543;22;20080;-61
2022/03/30 09:15:44;;;;;;;21.92;11.50;;;;;;;16.06;40.54;100497.22;6277877;22;19999;-58
2022/03/30 09:18:11;;;;;;;21.35;11.75;;;;;;;16.25;40.02;100512.88;6277481;22;20066;-59
2022/03/30 09:20:41;;;;;;;20.70;11.32;;;;;;;16.43;39.59;100500.97;6250294;22;20027;-60
2022/03/30 09:23:12;;;;;;;21.20;11.85;;;;;;;16.57;39.80;100497.16;6250479;22;20345;-60
2022/03/30 09:25:38;;;;;;;22.83;11.90;;;;;;;16.71;39.79;100497.78;6276917;22;20082;-60
2022/03/30 09:28:04;;;;;;;24.27;12.00;;;;;;;16.98;38.59;100499.91;6277307;22;20008;-60
2022/03/30 09:30:31;;;;;;;22.35;11.55;;;;;;;17.16;37.86;100503.97;6277373;22;20007;-60
2022/03/30 09:32:58;;;;;;;21.67;11.43;;;;;;;17.26;37.31;100491.31;6277488;22;20006;-61
2022/03/30 09:35:42;;;;;;;21.42;11.60;;;;;;;17.30;38.13;100493.00;6277477;22;20049;-60
2022/03/30 09:38:11;;;;;;;21.48;11.82;;;;;;;17.18;37.29;100504.84;6277289;22;20008;-60
2022/03/30 09:40:45;;;;;;;24.02;11.55;;;;;;;17.23;37.66;100489.59;6276898;22;20081;-60
2022/03/30 09:43:21;;;;;;;26.40;12.35;;;;;;;17.24;37.12;100480.66;6277653;22;20004;-60
2022/03/30 09:45:49;;;;;;;25.20;12.15;;;;;;;17.00;37.41;100481.19;6277536;22;20007;-60
2022/03/30 09:48:19;;;;;;;24.75;12.45;;;;;;;17.03;37.50;100483.78;6277185;22;20049;-60
2022/03/30 09:50:53;;;;;;;22.65;12.20;;;;;;;17.08;37.74;100479.22;6277229;22;20008;-59
2022/03/30 09:53:24;;;;;;;25.65;12.35;;;;;;;17.15;37.45;100477.31;6276945;22;20012;-60
2022/03/30 09:56:02;;;;;;;22.02;12.00;;;;;;;17.49;36.65;100461.41;6276967;22;20053;-61
2022/03/30 09:58:31;;;;;;;22.25;11.82;;;;;;;17.45;36.41;100465.94;6277473;22;20007;-60
2022/03/30 10:01:17;;;;;;;23.90;11.75;;;;;;;17.75;36.33;100464.34;6276949;22;20014;-60
2022/03/30 10:03:44;;;;;;;20.45;11.82;;;;;;;18.09;35.26;100465.28;6277239;22;20018;-60
2022/03/30 10:06:13;;;;;;;21.00;11.75;;;;;;;18.32;34.95;100473.56;6277268;22;20007;-60
2022/03/30 10:08:44;;;;;;;23.00;12.18;;;;;;;18.37;34.54;100462.72;6277011;22;20003;-60
2022/03/30 10:11:12;;;;;;;21.77;12.50;;;;;;;18.56;34.96;100453.28;6276900;22;20011;-60
2022/03/30 10:13:39;;;;;;;23.63;12.25;;;;;;;18.85;33.91;100451.59;6277050;22;20049;-60
2022/03/30 10:16:27;;;;;;;23.48;12.10;;;;;;;19.36;33.32;100450.94;6277163;22;20000;-61
2022/03/30 10:18:53;;;;;;;20.90;11.70;;;;;;;19.68;32.42;100444.56;6249905;22;20087;-58
2022/03/30 10:21:44;;;;;;;20.50;11.70;;;;;;;19.89;33.96;100451.00;6279020;22;20035;-59
2022/03/30 10:24:57;;;;;;;23.60;11.38;;;;;;;19.97;32.19;100455.16;6277405;22;20000;-59
2022/03/30 10:27:30;;;;;;;;;;;;;;;20.15;33.49;100442.91;6154003;23;20339;-60
2022/03/30 10:30:11;;;;;;;18.52;11.32;;;;;;;20.20;32.01;100434.72;6153766;23;19909;-60
2022/03/30 10:32:39;;;;;;;20.07;11.63;;;;;;;20.34;31.01;100440.47;6127945;23;20095;-60
2022/03/30 10:35:13;;;;;;;22.98;11.73;;;;;;;20.38;31.18;100442.09;6153476;23;20018;-60
2022/03/30 10:37:42;;;;;;;19.98;11.85;;;;;;;20.60;30.33;100435.97;6153572;23;20058;-60
2022/03/30 10:40:11;;;;;;;27.75;12.38;;;;;;;20.61;30.21;100435.06;6152911;23;20018;-61
2022/03/30 10:42:53;;;;;;;20.08;12.05;;;;;;;20.74;31.40;100426.47;6153450;23;20490;-60
2022/03/30 10:45:57;;;;;;;22.27;12.02;;;;;;;20.66;32.16;100428.56;6153395;23;20009;-62
2022/03/30 10:48:37;;;;;;;21.85;12.38;;;;;;;20.38;30.93;100415.25;6065623;23;20015;-60
2022/03/30 10:51:26;;;;;;;19.98;11.70;;;;;;;20.35;31.30;100418.06;6065916;23;20033;-60
2022/03/30 10:53:52;;;;;;;18.88;11.73;;;;;;;19.93;30.95;100412.41;5980413;24;20090;-61
2022/03/30 10:56:24;;;;;;;24.88;11.70;;;;;;;20.19;31.36;100412.38;5980625;24;20060;-60
2022/03/30 10:58:52;;;;;;;21.88;12.27;;;;;;;20.10;31.93;100409.16;5980982;24;20016;-60
2022/03/30 11:01:24;;;;;;;22.80;12.00;;;;;;;20.20;31.58;100407.88;5980698;24;20016;-60
2022/03/30 11:04:18;;;;;;;18.42;11.25;;;;;;;20.54;31.17;100398.63;6040549;23;20061;-60
2022/03/30 11:07:04;;;;;;;18.95;11.68;;;;;;;20.26;30.19;100389.75;6094370;23;20014;-60
2022/03/30 11:09:32;;;;;;;18.45;11.55;;;;;;;20.50;30.56;100393.38;6094017;23;20010;-60
2022/03/30 11:12:02;;;;;;;18.10;11.50;;;;;;;20.58;30.06;100387.72;6094542;23;20070;-60
2022/03/30 11:14:32;;;;;;;19.48;10.93;;;;;;;21.13;29.33;100382.88;6094500;23;20007;-60
2022/03/30 11:17:02;;;;;;;26.45;12.00;;;;;;;21.05;29.10;100386.81;6094233;23;20010;-61
2022/03/30 11:19:55;;;;;;;20.73;11.98;;;;;;;21.25;28.78;100379.69;6094537;23;20014;-60
2022/03/30 11:22:32;;;;;;;20.95;11.15;;;;;;;21.35;28.54;100379.34;6070272;23;20081;-60
2022/03/30 11:25:13;;;;;;;17.42;11.70;;;;;;;21.45;28.63;100376.19;6108936;23;20085;-60
2022/03/30 11:27:40;;;;;;;22.80;11.90;;;;;;;21.38;28.17;100371.16;6123551;23;20010;-60
2022/03/30 11:30:10;;;;;;;19.90;11.57;;;;;;;21.58;28.49;100368.50;6144028;23;20038;-60